Time;durP1;ratioP1;P1;durP2;ratioP2;P2;SDS_P1;SDS_P2;PMS_P1;PMS_P2;Temp;Humidity;BMP_temperature;BMP_pressure;BME280_temperature;BME280_humidity;BME280_pressure;Samples;Min_cycle;Max_cycle;Signal;HPM_P1;HPM_P2
2022/09/20 00:01:30;;;;;;;0.93;0.50;;;;;;;11.73;100.00;100781.16;5038714;28;20557;-55
2022/09/20 00:03:59;;;;;;;0.30;0.20;;;;;;;11.72;100.00;100778.53;5040820;28;20463;-56
2022/09/20 00:06:28;;;;;;;0.60;0.50;;;;;;;11.67;100.00;100780.47;5045374;28;20458;-57
2022/09/20 00:08:55;;;;;;;4.83;1.23;;;;;;;11.62;100.00;100780.56;5043814;28;20494;-56
2022/09/20 00:11:25;;;;;;;0.60;0.50;;;;;;;11.63;100.00;100773.44;5038302;28;20553;-56
2022/09/20 00:13:54;;;;;;;1.00;0.70;;;;;;;11.60;100.00;100779.72;5039403;28;20447;-56
2022/09/20 00:16:26;;;;;;;5.20;0.50;;;;;;;11.46;100.00;100774.75;5043948;28;21007;-56
2022/09/20 00:18:55;;;;;;;2.73;0.90;;;;;;;11.35;100.00;100781.22;5050246;28;20874;-56
2022/09/20 00:21:28;;;;;;;0.87;0.67;;;;;;;11.32;100.00;100779.53;5038247;28;20474;-56
2022/09/20 00:23:56;;;;;;;6.50;0.50;;;;;;;11.31;100.00;100775.13;5045097;28;20501;-56
2022/09/20 00:26:24;;;;;;;2.43;0.97;;;;;;;11.33;100.00;100769.75;5040860;28;20451;-56
2022/09/20 00:28:51;;;;;;;0.40;0.30;;;;;;;11.25;100.00;100775.28;5037676;28;20496;-56
2022/09/20 00:31:18;;;;;;;2.23;0.40;;;;;;;11.23;100.00;100780.59;5041820;28;20502;-55
2022/09/20 00:36:30;;;;;;;2.50;0.50;;;;;;;10.99;100.00;100778.53;5043952;28;20504;-56
2022/09/20 00:38:58;;;;;;;4.63;0.50;;;;;;;10.73;100.00;100776.44;5037856;28;21017;-56
2022/09/20 00:41:25;;;;;;;1.90;0.60;;;;;;;10.67;100.00;100773.88;5038276;28;20537;-56
2022/09/20 00:43:52;;;;;;;0.67;0.50;;;;;;;10.73;100.00;100784.41;5044277;28;20451;-56
2022/09/20 00:46:25;;;;;;;4.13;0.40;;;;;;;10.71;100.00;100783.56;5044553;28;20451;-55
2022/09/20 00:48:57;;;;;;;2.23;0.80;;;;;;;10.54;100.00;100783.91;5038043;28;20497;-55
2022/09/20 00:51:33;;;;;;;0.67;0.67;;;;;;;10.56;100.00;100783.91;5037631;28;20479;-55
2022/09/20 00:54:03;;;;;;;2.30;0.83;;;;;;;10.63;100.00;100781.06;5041051;28;20954;-56
2022/09/20 00:56:33;;;;;;;1.33;0.40;;;;;;;10.43;100.00;100791.25;5044310;28;20887;-56
2022/09/20 00:59:18;;;;;;;0.40;0.30;;;;;;;10.30;100.00;100782.63;5042342;28;20455;-56
2022/09/20 01:01:50;;;;;;;1.40;1.30;;;;;;;10.46;100.00;100782.31;5024413;28;20520;-56
2022/09/20 01:04:20;;;;;;;1.77;0.50;;;;;;;10.45;100.00;100788.53;5036508;28;20459;-55
2022/09/20 01:06:50;;;;;;;4.40;1.30;;;;;;;10.17;100.00;100782.84;5039242;28;20470;-56
2022/09/20 01:09:16;;;;;;;0.40;0.30;;;;;;;10.15;100.00;100790.00;5037503;28;20496;-56
2022/09/20 01:11:43;;;;;;;3.13;1.90;;;;;;;10.21;100.00;100787.19;5041973;28;20490;-55
2022/09/20 01:14:14;;;;;;;0.50;0.50;;;;;;;10.28;100.00;100791.50;5044176;28;20862;-55
2022/09/20 01:16:40;;;;;;;23.37;7.03;;;;;;;10.19;100.00;100789.00;5040360;28;20797;-55
2022/09/20 01:19:39;;;;;;;12.23;3.37;;;;;;;10.22;100.00;100789.84;5047543;28;20451;-55
2022/09/20 01:22:33;;;;;;;0.50;0.50;;;;;;;10.00;100.00;100791.13;5037980;28;20527;-56
2022/09/20 01:25:06;;;;;;;1.63;0.50;;;;;;;10.16;100.00;100794.41;5028928;28;20459;-55
2022/09/20 01:27:40;;;;;;;2.60;0.93;;;;;;;10.13;100.00;100794.44;5043324;28;20503;-56
2022/09/20 01:30:10;;;;;;;1.50;1.17;;;;;;;9.96;100.00;100798.28;5043854;28;20474;-56
2022/09/20 01:32:49;;;;;;;0.70;0.70;;;;;;;10.01;100.00;100798.22;5038153;28;20492;-55
2022/09/20 01:35:20;;;;;;;2.23;1.40;;;;;;;9.94;100.00;100807.19;5036852;28;20501;-56
2022/09/20 01:37:58;;;;;;;2.00;1.43;;;;;;;10.10;100.00;100806.88;5040167;28;20452;-56
2022/09/20 01:40:56;;;;;;;2.20;1.07;;;;;;;9.82;100.00;100800.28;5043634;28;20472;-55
2022/09/20 01:43:34;;;;;;;0.50;0.40;;;;;;;9.72;100.00;100807.53;4995743;28;20955;-56
2022/09/20 01:46:14;;;;;;;0.50;0.30;;;;;;;9.82;100.00;100800.28;5038958;28;20505;-56
2022/09/20 01:48:41;;;;;;;1.10;0.60;;;;;;;9.84;100.00;100802.91;5025831;28;20553;-56
2022/09/20 01:51:44;;;;;;;0.67;0.37;;;;;;;9.71;100.00;100799.59;5043234;28;20540;-55
2022/09/20 01:54:19;;;;;;;2.03;0.60;;;;;;;9.63;100.00;100799.75;5033366;28;20822;-56
2022/09/20 01:57:11;;;;;;;0.73;0.47;;;;;;;9.66;100.00;100801.47;5036396;28;20552;-55
2022/09/20 02:00:04;;;;;;;0.70;0.50;;;;;;;9.72;100.00;100796.03;5035458;28;20505;-56
2022/09/20 02:02:52;;;;;;;0.80;0.77;;;;;;;9.73;100.00;100792.47;5028873;28;20510;-55
2022/09/20 02:05:21;;;;;;;1.60;1.10;;;;;;;9.61;100.00;100790.94;5019999;28;20463;-56
2022/09/20 02:08:25;;;;;;;0.60;0.60;;;;;;;9.53;100.00;100798.13;5043010;28;20499;-56
2022/09/20 02:11:13;;;;;;;8.53;0.50;;;;;;;9.59;100.00;100805.09;5042913;28;20994;-56
2022/09/20 02:13:39;;;;;;;2.20;0.70;;;;;;;9.71;100.00;100797.81;5040875;28;20936;-56
2022/09/20 02:16:23;;;;;;;0.97;0.60;;;;;;;9.73;100.00;100797.78;5036181;28;20508;-55
2022/09/20 02:19:02;;;;;;;4.20;0.33;;;;;;;9.96;100.00;100797.41;5049057;28;20943;-56
2022/09/20 02:21:31;;;;;;;0.43;0.27;;;;;;;9.94;100.00;100796.56;5035619;28;20983;-55
2022/09/20 02:24:06;;;;;;;3.23;0.50;;;;;;;9.73;100.00;100793.38;5042794;28;20971;-56
2022/09/20 02:26:45;;;;;;;0.50;0.40;;;;;;;9.75;100.00;100794.22;5039775;28;20446;-56
2022/09/20 02:29:31;;;;;;;20.93;0.53;;;;;;;9.79;100.00;100798.56;5035755;28;20502;-56
2022/09/20 02:32:23;;;;;;;0.40;0.30;;;;;;;9.70;100.00;100793.41;5035500;28;20515;-56
2022/09/20 02:35:13;;;;;;;0.47;0.40;;;;;;;9.63;100.00;100794.44;5037322;28;20482;-56
2022/09/20 02:37:57;;;;;;;0.63;0.50;;;;;;;9.49;100.00;100797.31;5026395;28;20453;-56
2022/09/20 02:40:44;;;;;;;0.40;0.23;;;;;;;9.43;100.00;100796.50;5035531;28;20466;-56
2022/09/20 02:43:39;;;;;;;0.40;0.30;;;;;;;9.43;100.00;100791.22;5035537;28;20889;-56
2022/09/20 02:46:27;;;;;;;0.70;0.57;;;;;;;9.40;100.00;100793.91;5038009;28;20447;-56
2022/09/20 02:49:17;;;;;;;0.40;0.40;;;;;;;9.33;100.00;100801.09;5024588;28;20552;-56
2022/09/20 02:51:51;;;;;;;0.40;0.40;;;;;;;9.28;100.00;100804.72;5035846;28;20489;-56
2022/09/20 02:54:50;;;;;;;0.50;0.30;;;;;;;9.23;100.00;100806.56;5037258;28;20451;-56
2022/09/20 02:57:33;;;;;;;1.17;0.70;;;;;;;9.28;100.00;100810.00;5027579;28;20446;-56
2022/09/20 03:00:12;;;;;;;0.40;0.30;;;;;;;9.04;100.00;100812.13;5035409;28;20447;-55
2022/09/20 03:02:39;;;;;;;0.87;0.63;;;;;;;9.03;100.00;100807.72;5035639;28;20803;-55
2022/09/20 03:05:26;;;;;;;0.40;0.30;;;;;;;9.01;100.00;100811.28;5047893;28;20463;-56
2022/09/20 03:08:22;;;;;;;3.00;0.50;;;;;;;9.00;100.00;100812.19;5035375;28;20494;-56
2022/09/20 03:10:55;;;;;;;1.90;0.77;;;;;;;9.06;100.00;100810.34;5034476;28;21060;-56
2022/09/20 03:13:40;;;;;;;0.40;0.30;;;;;;;9.02;100.00;100813.91;5040775;28;20451;-56
2022/09/20 03:16:15;;;;;;;1.17;0.90;;;;;;;9.01;100.00;100812.16;5034114;28;20454;-56
2022/09/20 03:18:55;;;;;;;1.13;0.60;;;;;;;9.00;100.00;100814.84;5048818;28;20443;-56
2022/09/20 03:21:54;;;;;;;1.60;0.70;;;;;;;8.99;100.00;100815.75;5023372;28;20533;-56
2022/09/20 03:24:48;;;;;;;6.03;1.60;;;;;;;9.06;100.00;100814.78;5042173;28;20451;-56
2022/09/20 03:27:42;;;;;;;0.80;0.70;;;;;;;8.92;100.00;100814.09;5041961;28;20452;-56
2022/09/20 03:30:23;;;;;;;1.10;0.40;;;;;;;8.90;100.00;100814.06;5041665;28;20992;-56
2022/09/20 03:33:26;;;;;;;0.50;0.40;;;;;;;8.85;100.00;100805.31;5038095;28;20447;-56
2022/09/20 03:36:27;;;;;;;0.50;0.50;;;;;;;8.75;100.00;100819.56;5030031;28;20903;-56
2022/09/20 03:38:53;;;;;;;10.93;0.40;;;;;;;8.76;100.00;100822.22;5041927;28;21030;-56
2022/09/20 03:41:35;;;;;;;0.50;0.43;;;;;;;8.82;100.00;100821.28;5040723;28;20533;-56
2022/09/20 03:44:16;;;;;;;0.47;0.33;;;;;;;8.75;100.00;100824.88;5040847;28;20509;-56
2022/09/20 03:46:45;;;;;;;0.80;0.47;;;;;;;8.76;100.00;100834.59;5041933;28;20447;-56
2022/09/20 03:49:14;;;;;;;0.97;0.97;;;;;;;8.73;100.00;100834.63;5038424;28;20487;-56
2022/09/20 03:52:13;;;;;;;0.70;0.60;;;;;;;8.76;100.00;100826.63;5034869;28;20478;-56
2022/09/20 03:54:54;;;;;;;0.60;0.50;;;;;;;8.76;100.00;100822.22;5014222;28;20456;-56
2022/09/20 03:57:33;;;;;;;0.70;0.50;;;;;;;8.83;100.00;100821.25;5038047;28;20454;-56
2022/09/20 04:00:08;;;;;;;3.53;0.60;;;;;;;8.76;100.00;100814.25;5041852;28;20443;-56
2022/09/20 04:02:46;;;;;;;0.60;0.60;;;;;;;8.77;100.00;100825.72;5023976;28;20458;-56
2022/09/20 04:05:21;;;;;;;12.53;0.97;;;;;;;8.90;100.00;100819.38;5036937;28;20970;-56
2022/09/20 04:08:38;;;;;;;0.63;0.60;;;;;;;9.00;100.00;100826.31;5031891;28;20500;-56
2022/09/20 04:11:15;;;;;;;0.70;0.60;;;;;;;9.04;100.00;100827.16;5013875;28;20481;-56
2022/09/20 04:13:53;;;;;;;0.53;0.40;;;;;;;9.07;100.00;100825.34;5040475;28;20454;-56
2022/09/20 04:16:38;;;;;;;0.60;0.50;;;;;;;9.12;100.00;100828.81;5033940;28;20451;-56
2022/09/20 04:19:26;;;;;;;0.50;0.33;;;;;;;9.06;100.00;100836.88;5041620;28;20459;-56
2022/09/20 04:22:00;;;;;;;0.67;0.60;;;;;;;9.11;100.00;100829.72;5034700;28;20478;-56
2022/09/20 04:24:29;;;;;;;3.70;1.43;;;;;;;9.19;100.00;100830.50;5024537;28;20457;-56
2022/09/20 04:27:01;;;;;;;1.50;0.60;;;;;;;9.14;100.00;100836.75;5038264;28;20459;-56
2022/09/20 04:29:34;;;;;;;0.40;0.30;;;;;;;8.98;100.00;100838.72;5043774;28;20530;-56
2022/09/20 04:32:26;;;;;;;0.40;0.27;;;;;;;8.98;100.00;100836.06;5044848;28;20971;-56
2022/09/20 04:38:07;;;;;;;1.40;0.43;;;;;;;9.39;100.00;100839.91;5035434;28;20968;-57
2022/09/20 04:40:42;;;;;;;0.40;0.30;;;;;;;9.26;100.00;100839.22;5037819;28;20470;-56
2022/09/20 04:43:34;;;;;;;0.70;0.70;;;;;;;9.33;100.00;100845.34;5037746;28;20483;-57
2022/09/20 04:46:39;;;;;;;18.23;0.63;;;;;;;9.23;100.00;100844.56;5040221;28;20945;-56
2022/09/20 04:49:32;;;;;;;1.20;1.10;;;;;;;9.11;100.00;100850.94;5030143;28;20551;-57
2022/09/20 04:52:09;;;;;;;1.27;1.13;;;;;;;9.16;100.00;100853.50;5037589;28;20479;-57
2022/09/20 04:55:03;;;;;;;0.67;0.60;;;;;;;9.17;100.00;100858.78;5037614;28;20451;-56
2022/09/20 04:57:48;;;;;;;0.50;0.40;;;;;;;9.32;100.00;100854.16;5039044;28;20933;-57
2022/09/20 05:00:19;;;;;;;0.30;0.30;;;;;;;9.33;100.00;100842.69;5026570;28;20467;-57
2022/09/20 05:02:45;;;;;;;0.87;0.87;;;;;;;9.41;100.00;100851.38;5037551;28;20509;-57
2022/09/20 05:05:27;;;;;;;2.20;0.60;;;;;;;9.48;100.00;100861.03;5050800;28;20469;-57
2022/09/20 05:08:31;;;;;;;1.43;0.70;;;;;;;9.66;100.00;100859.84;5037264;28;20939;-57
2022/09/20 05:11:25;;;;;;;5.70;0.70;;;;;;;9.49;100.00;100862.78;5036956;28;20763;-56
2022/09/20 05:14:25;;;;;;;0.57;0.43;;;;;;;9.56;100.00;100860.88;5037978;28;20921;-57
2022/09/20 05:17:24;;;;;;;0.83;0.80;;;;;;;9.67;100.00;100859.81;5040510;28;20835;-57
2022/09/20 05:20:01;;;;;;;0.73;0.73;;;;;;;9.72;100.00;100860.63;5029056;28;20541;-56
2022/09/20 05:22:36;;;;;;;0.70;0.70;;;;;;;9.71;100.00;100864.19;5033423;28;20451;-56
2022/09/20 05:25:37;;;;;;;0.50;0.40;;;;;;;9.79;100.00;100864.94;5042047;28;20515;-56
2022/09/20 05:28:18;;;;;;;4.20;0.87;;;;;;;9.80;100.00;100874.66;5030212;28;20459;-57
2022/09/20 05:30:53;;;;;;;2.07;1.93;;;;;;;9.90;100.00;100866.56;5036819;28;20932;-56
2022/09/20 05:33:26;;;;;;;1.60;1.23;;;;;;;9.90;100.00;100869.22;5036969;28;20449;-56
2022/09/20 05:36:12;;;;;;;2.87;1.20;;;;;;;9.89;100.00;100872.78;5031923;28;20524;-57
2022/09/20 05:38:53;;;;;;;1.63;1.43;;;;;;;10.06;100.00;100865.41;5037006;28;20443;-56
2022/09/20 05:41:46;;;;;;;0.63;0.63;;;;;;;10.06;100.00;100866.28;5037301;28;20468;-56
2022/09/20 05:44:44;;;;;;;0.70;0.60;;;;;;;10.15;100.00;100867.03;5029161;28;20949;-56
2022/09/20 05:47:38;;;;;;;0.77;0.73;;;;;;;10.15;100.00;100873.22;5043360;28;20514;-56
2022/09/20 05:50:23;;;;;;;2.67;0.67;;;;;;;9.95;100.00;100881.50;5043009;28;20568;-57
2022/09/20 05:53:17;;;;;;;7.40;2.67;;;;;;;10.21;100.00;100881.09;5043683;28;20458;-56
2022/09/20 05:56:00;;;;;;;1.00;0.73;;;;;;;10.26;100.00;100887.19;5031110;28;20879;-56
2022/09/20 05:58:51;;;;;;;10.13;1.53;;;;;;;10.44;100.00;100887.78;5036088;28;20451;-57
2022/09/20 06:01:33;;;;;;;0.70;0.70;;;;;;;10.58;100.00;100891.06;5036247;28;20730;-57
2022/09/20 06:04:28;;;;;;;0.60;0.60;;;;;;;10.80;100.00;100889.72;5037810;28;20451;-57
2022/09/20 06:07:05;;;;;;;0.80;0.80;;;;;;;10.65;100.00;100892.69;5028515;28;20447;-57
2022/09/20 06:09:50;;;;;;;1.90;1.03;;;;;;;10.80;100.00;100897.69;5035918;28;20490;-57
2022/09/20 06:12:39;;;;;;;0.70;0.70;;;;;;;10.84;100.00;100895.88;5036277;28;20461;-57
2022/09/20 06:15:27;;;;;;;2.37;0.70;;;;;;;10.87;100.00;100890.50;5025440;28;20810;-57
2022/09/20 06:18:20;;;;;;;1.03;1.03;;;;;;;10.94;100.00;100889.44;5049279;28;20844;-57
2022/09/20 06:21:04;;;;;;;1.70;0.80;;;;;;;10.99;100.00;100892.91;5035928;28;20532;-57
2022/09/20 06:23:33;;;;;;;12.80;0.73;;;;;;;11.06;100.00;100893.63;5042745;28;20528;-57
2022/09/20 06:26:09;;;;;;;1.10;0.60;;;;;;;11.15;100.00;100889.00;5036090;28;20461;-57
2022/09/20 06:28:40;;;;;;;2.00;1.23;;;;;;;11.32;100.00;100901.06;5035369;28;20549;-57
2022/09/20 06:31:10;;;;;;;9.80;1.07;;;;;;;11.41;100.00;100895.56;5040928;28;20471;-57
2022/09/20 06:33:44;;;;;;;1.30;1.10;;;;;;;11.67;100.00;100900.28;5042147;28;20875;-57
2022/09/20 06:42:20;;;;;;;2.37;0.97;;;;;;;11.78;100.00;100901.75;5023583;28;20451;-57
2022/09/20 06:44:52;;;;;;;0.60;0.50;;;;;;;11.97;100.00;100901.38;5035672;28;20448;-57
2022/09/20 06:47:19;;;;;;;1.87;1.10;;;;;;;12.18;100.00;100898.16;5040444;28;20514;-57
2022/09/20 06:49:46;;;;;;;0.60;0.40;;;;;;;12.15;100.00;100904.44;5042031;28;20505;-57
2022/09/20 06:52:15;;;;;;;1.63;0.50;;;;;;;12.01;100.00;100909.25;5036941;28;20923;-57
2022/09/20 06:54:44;;;;;;;0.80;0.80;;;;;;;12.12;100.00;100904.53;5035443;28;21001;-57
2022/09/20 06:57:26;;;;;;;0.63;0.60;;;;;;;12.00;100.00;100898.63;5022190;28;20458;-57
2022/09/20 06:59:53;;;;;;;3.07;1.20;;;;;;;12.11;100.00;100905.44;5041947;28;20558;-57
2022/09/20 07:02:19;;;;;;;0.90;0.60;;;;;;;12.20;100.00;100903.44;5040291;28;20454;-57
2022/09/20 07:04:46;;;;;;;1.27;1.17;;;;;;;12.43;100.00;100901.06;5030930;28;20961;-57
2022/09/20 07:07:17;;;;;;;5.93;1.13;;;;;;;12.66;100.00;100906.69;5040131;28;20450;-57
2022/09/20 07:09:44;;;;;;;0.97;0.80;;;;;;;12.54;100.00;100915.00;5036248;28;21010;-57
2022/09/20 07:12:11;;;;;;;0.70;0.60;;;;;;;12.73;100.00;100902.03;5036709;28;20451;-57
2022/09/20 07:14:38;;;;;;;4.10;0.70;;;;;;;12.68;100.00;100901.28;5042247;28;20518;-57
2022/09/20 07:17:05;;;;;;;1.63;1.53;;;;;;;12.58;100.00;100907.78;5042031;28;20520;-57
2022/09/20 07:19:32;;;;;;;1.27;1.27;;;;;;;12.50;100.00;100899.13;5023746;28;20451;-57
2022/09/20 07:21:59;;;;;;;0.63;0.57;;;;;;;12.90;100.00;100909.59;5035163;28;20530;-57
2022/09/20 07:24:25;;;;;;;0.90;0.57;;;;;;;13.05;100.00;100915.38;5042053;28;20459;-57
2022/09/20 07:26:56;;;;;;;12.13;1.07;;;;;;;12.86;100.00;100913.25;5042006;28;20450;-57
2022/09/20 07:29:23;;;;;;;1.30;1.20;;;;;;;12.90;100.00;100923.81;5023539;28;20490;-57
2022/09/20 07:31:49;;;;;;;13.97;1.73;;;;;;;12.54;100.00;100914.13;5035010;28;20533;-57
2022/09/20 07:34:19;;;;;;;2.23;0.70;;;;;;;12.51;100.00;100915.09;5040759;28;20443;-57
2022/09/20 07:36:46;;;;;;;2.50;1.23;;;;;;;12.64;100.00;100920.97;5042125;28;20458;-57
2022/09/20 07:39:13;;;;;;;3.13;1.60;;;;;;;12.72;100.00;100922.50;5037353;28;20462;-57
2022/09/20 07:41:40;;;;;;;2.87;1.03;;;;;;;12.61;100.00;100923.69;5016907;28;20987;-57
2022/09/20 07:44:24;;;;;;;0.60;0.50;;;;;;;12.65;100.00;100918.25;5039540;28;20459;-57
2022/09/20 07:46:53;;;;;;;3.50;1.30;;;;;;;12.81;100.00;100924.06;5041835;28;20451;-57
2022/09/20 07:49:20;;;;;;;1.20;0.90;;;;;;;13.03;100.00;100927.88;5039850;28;20901;-57
2022/09/20 07:51:49;;;;;;;1.63;0.80;;;;;;;12.91;100.00;100922.88;5034679;28;20486;-57
2022/09/20 07:54:16;;;;;;;3.43;1.10;;;;;;;13.00;100.00;100935.06;5036218;28;20451;-57
2022/09/20 07:56:43;;;;;;;1.47;0.80;;;;;;;13.20;100.00;100937.22;5041646;28;20455;-56
2022/09/20 07:59:11;;;;;;;1.70;1.13;;;;;;;13.21;100.00;100931.84;5044361;28;20446;-57
2022/09/20 08:01:38;;;;;;;0.97;0.93;;;;;;;13.43;100.00;100940.09;5038468;28;20524;-57
2022/09/20 08:04:06;;;;;;;3.50;0.73;;;;;;;13.23;100.00;100931.78;5021431;28;20968;-57
2022/09/20 08:06:35;;;;;;;0.90;0.70;;;;;;;13.56;100.00;100938.78;5038371;28;20508;-57
2022/09/20 08:09:01;;;;;;;12.60;1.50;;;;;;;13.46;100.00;100944.47;5038469;28;20540;-57
2022/09/20 08:11:29;;;;;;;1.33;0.80;;;;;;;13.66;100.00;100936.72;5044957;28;20479;-57
2022/09/20 08:13:58;;;;;;;2.10;0.80;;;;;;;13.90;100.00;100940.44;5045266;28;20457;-57
2022/09/20 08:16:46;;;;;;;1.60;0.90;;;;;;;14.32;100.00;100932.81;5044457;28;20442;-57
2022/09/20 08:19:18;;;;;;;1.57;1.47;;;;;;;14.48;100.00;100931.38;5048063;28;20534;-57
2022/09/20 08:21:44;;;;;;;7.33;1.17;;;;;;;14.37;100.00;100935.31;5038045;28;20999;-57
2022/09/20 08:24:11;;;;;;;1.97;1.27;;;;;;;14.48;100.00;100936.72;5044780;28;20509;-57
2022/09/20 08:26:37;;;;;;;0.40;0.40;;;;;;;14.61;98.00;100941.66;5043397;28;20477;-57
2022/09/20 08:29:07;;;;;;;2.10;0.47;;;;;;;14.46;99.51;100933.25;5037794;28;20528;-57
2022/09/20 08:31:36;;;;;;;1.73;0.83;;;;;;;14.61;99.99;100939.88;5040036;28;20494;-57
2022/09/20 08:34:05;;;;;;;4.10;0.70;;;;;;;14.35;99.98;100942.50;5044914;28;20447;-57
2022/09/20 08:36:34;;;;;;;12.83;1.47;;;;;;;14.52;98.76;100938.38;5043663;28;20463;-57
2022/09/20 08:39:06;;;;;;;0.50;0.40;;;;;;;14.85;97.44;100940.81;5038307;28;21329;-57
2022/09/20 08:42:01;;;;;;;1.03;0.90;;;;;;;14.50;99.26;100939.34;5037870;28;20524;-57
2022/09/20 08:44:32;;;;;;;0.60;0.60;;;;;;;14.72;97.77;100950.19;5040053;28;20443;-57
2022/09/20 08:47:21;;;;;;;1.53;0.70;;;;;;;14.93;98.17;100948.53;5044702;28;21045;-57
2022/09/20 08:49:52;;;;;;;6.87;1.07;;;;;;;15.18;97.54;100946.72;5044489;28;20559;-57
2022/09/20 08:52:31;;;;;;;1.53;0.60;;;;;;;15.28;95.51;100942.78;5041871;28;20442;-57
2022/09/20 08:55:15;;;;;;;0.50;0.33;;;;;;;14.75;95.68;100947.41;5037616;28;20451;-57
2022/09/20 08:57:46;;;;;;;1.77;0.70;;;;;;;14.87;96.50;100952.31;5037704;28;21230;-56
2022/09/20 09:00:19;;;;;;;1.60;0.87;;;;;;;14.62;97.05;100952.31;5043254;28;20446;-57
2022/09/20 09:02:46;;;;;;;3.37;0.80;;;;;;;14.73;96.74;100952.81;5044544;28;20457;-57
2022/09/20 09:05:36;;;;;;;1.63;0.67;;;;;;;14.64;96.71;100946.91;5039750;28;21279;-56
2022/09/20 09:08:09;;;;;;;0.60;0.50;;;;;;;14.89;97.50;100950.47;5037873;28;20447;-57
2022/09/20 09:10:38;;;;;;;1.27;0.50;;;;;;;14.91;96.34;100947.72;5037194;28;20910;-56
2022/09/20 09:13:16;;;;;;;0.80;0.80;;;;;;;14.78;95.08;100941.94;5026476;28;20534;-57
2022/09/20 09:15:53;;;;;;;6.30;1.40;;;;;;;15.13;95.27;100948.72;5035498;28;20451;-57
2022/09/20 09:18:19;;;;;;;0.70;0.40;;;;;;;15.09;93.28;100957.81;5040547;28;20930;-57
2022/09/20 09:20:46;;;;;;;3.20;2.37;;;;;;;14.87;92.73;100951.47;5020131;28;20811;-57
2022/09/20 09:23:26;;;;;;;4.50;1.27;;;;;;;14.96;91.59;100957.38;5043816;28;20964;-56
2022/09/20 09:25:53;;;;;;;0.50;0.50;;;;;;;15.00;91.86;100947.41;5037213;28;20939;-57
2022/09/20 09:28:25;;;;;;;3.50;1.13;;;;;;;14.99;91.13;100941.19;5038172;28;20451;-57
2022/09/20 09:30:51;;;;;;;1.00;0.83;;;;;;;15.22;91.13;100943.03;5043742;28;20534;-57
2022/09/20 09:33:18;;;;;;;4.80;1.40;;;;;;;15.29;91.19;100936.50;5031022;28;20514;-57
2022/09/20 09:36:14;;;;;;;10.23;1.10;;;;;;;15.48;90.44;100941.13;5037852;28;20508;-57
2022/09/20 09:38:44;;;;;;;2.47;1.03;;;;;;;15.80;90.25;100938.13;5035737;28;20463;-57
2022/09/20 09:41:16;;;;;;;1.00;0.90;;;;;;;15.94;87.29;100942.94;5039769;28;20475;-57
2022/09/20 09:43:55;;;;;;;22.83;1.07;;;;;;;15.88;86.97;100933.31;5043599;28;20482;-57
2022/09/20 09:46:25;;;;;;;5.67;0.80;;;;;;;16.33;85.32;100931.53;5043924;28;20455;-57
2022/09/20 09:49:06;;;;;;;1.33;0.80;;;;;;;16.37;85.34;100939.38;5038186;28;20822;-56
2022/09/20 09:51:37;;;;;;;5.27;1.00;;;;;;;16.61;83.97;100928.53;5036794;28;20493;-57
2022/09/20 09:54:06;;;;;;;1.37;0.77;;;;;;;16.40;83.68;100930.31;5039636;28;20455;-57
2022/09/20 09:57:04;;;;;;;5.27;0.80;;;;;;;16.25;86.24;100934.50;5026046;28;20480;-57
2022/09/20 09:59:53;;;;;;;1.50;1.40;;;;;;;16.57;84.65;100933.13;5032019;28;20451;-57
2022/09/20 10:02:39;;;;;;;3.50;1.10;;;;;;;16.59;83.58;100929.47;5038181;28;20458;-57
2022/09/20 10:05:14;;;;;;;1.40;1.20;;;;;;;16.33;84.66;100931.53;5018532;28;20447;-57
2022/09/20 10:07:40;;;;;;;5.07;0.50;;;;;;;16.37;85.80;100930.44;5041629;28;20955;-57
2022/09/20 10:10:30;;;;;;;0.80;0.80;;;;;;;16.32;84.74;100929.78;5025285;28;20495;-57
2022/09/20 10:13:11;;;;;;;0.97;0.80;;;;;;;16.55;83.12;100929.66;5043506;28;20455;-57
2022/09/20 10:15:48;;;;;;;1.30;0.90;;;;;;;16.37;83.75;100928.63;5036246;28;20455;-57
2022/09/20 10:18:40;;;;;;;3.13;1.00;;;;;;;16.49;82.73;100922.75;5039409;28;20466;-57
2022/09/20 10:21:18;;;;;;;2.23;2.13;;;;;;;16.28;83.49;100927.19;5035401;28;20619;-57
2022/09/20 10:23:44;;;;;;;1.60;0.83;;;;;;;16.50;86.00;100926.31;5037678;28;20462;-57
2022/09/20 10:26:50;;;;;;;1.23;0.97;;;;;;;16.10;87.51;100919.94;5024302;28;20473;-57
2022/09/20 10:29:35;;;;;;;0.90;0.80;;;;;;;16.04;87.58;100922.88;5036213;28;20421;-57
2022/09/20 10:32:25;;;;;;;1.00;0.50;;;;;;;15.98;85.66;100928.47;5035828;28;20467;-57
2022/09/20 10:35:10;;;;;;;6.37;2.80;;;;;;;16.18;84.83;100923.19;5006764;28;20455;-57
2022/09/20 10:37:40;;;;;;;1.10;1.00;;;;;;;16.24;84.64;100930.94;5007962;28;20508;-57
2022/09/20 10:44:08;;;;;;;3.57;1.03;;;;;;;16.18;84.25;100925.84;5035416;28;20492;-57
2022/09/20 10:46:42;;;;;;;7.47;1.30;;;;;;;16.25;84.16;100916.59;5035755;28;20501;-57
2022/09/20 10:49:22;;;;;;;14.53;1.50;;;;;;;16.30;84.11;100919.94;5040074;28;20452;-57
2022/09/20 10:52:07;;;;;;;1.50;0.60;;;;;;;16.74;83.18;100919.91;5042315;28;20541;-57
2022/09/20 10:54:44;;;;;;;1.30;0.50;;;;;;;16.33;82.12;100920.78;5042823;28;20504;-57
2022/09/20 10:57:26;;;;;;;1.17;0.83;;;;;;;16.34;83.92;100922.53;5038265;28;20496;-57
2022/09/20 11:00:21;;;;;;;1.10;1.00;;;;;;;16.70;83.87;100925.47;5035697;28;20454;-57
2022/09/20 11:03:09;;;;;;;7.47;1.03;;;;;;;16.56;84.76;100920.66;5035929;28;20659;-58
2022/09/20 11:05:42;;;;;;;0.60;0.53;;;;;;;16.48;85.46;100912.94;5049349;28;20426;-57
2022/09/20 11:08:21;;;;;;;2.83;1.07;;;;;;;16.54;87.79;100923.41;5035449;28;20988;-57
2022/09/20 11:10:52;;;;;;;3.37;1.33;;;;;;;16.76;85.26;100923.41;5034957;28;20499;-57
2022/09/20 11:13:39;;;;;;;0.63;0.40;;;;;;;16.50;84.24;100929.00;5040430;28;20984;-57
2022/09/20 11:16:15;;;;;;;11.73;1.23;;;;;;;16.26;83.78;100929.06;5038509;28;20429;-57
2022/09/20 11:18:50;;;;;;;2.63;0.70;;;;;;;16.38;84.19;100927.69;5049267;28;20451;-57
2022/09/20 11:21:27;;;;;;;5.37;0.83;;;;;;;16.18;84.17;100919.63;5040957;28;20923;-57
2022/09/20 11:24:02;;;;;;;0.60;0.40;;;;;;;16.25;85.63;100919.28;5017515;28;20455;-57
2022/09/20 11:26:48;;;;;;;0.70;0.57;;;;;;;16.29;83.72;100928.94;5038776;28;20462;-57
2022/09/20 11:29:27;;;;;;;0.70;0.43;;;;;;;16.58;81.04;100929.50;5041791;28;20472;-57
2022/09/20 11:32:01;;;;;;;3.67;0.43;;;;;;;16.84;77.92;100931.97;5042503;28;20501;-57
2022/09/20 11:34:32;;;;;;;0.60;0.50;;;;;;;16.76;75.58;100926.09;5039319;28;20497;-57
2022/09/20 11:37:02;;;;;;;0.60;0.57;;;;;;;17.21;75.45;100930.31;5025862;28;20452;-57
2022/09/20 11:39:43;;;;;;;2.80;1.30;;;;;;;17.28;73.19;100923.75;5033131;28;20955;-57
2022/09/20 11:42:15;;;;;;;4.07;0.70;;;;;;;17.58;71.16;100924.13;5047378;28;20585;-57
2022/09/20 11:44:41;;;;;;;0.50;0.40;;;;;;;17.79;69.59;100927.63;5045316;28;20442;-57
2022/09/20 11:47:21;;;;;;;17.17;1.17;;;;;;;17.52;69.54;100929.78;5038841;28;20451;-57
2022/09/20 11:50:48;;;;;;;1.47;0.87;;;;;;;17.31;68.40;100920.03;5038591;28;20521;-57
2022/09/20 11:53:48;;;;;;;0.90;0.67;;;;;;;17.53;68.90;100915.38;5038857;28;20455;-57
2022/09/20 11:56:27;;;;;;;2.10;0.90;;;;;;;17.38;68.76;100916.97;5038755;28;20425;-56
2022/09/20 11:58:57;;;;;;;1.73;0.50;;;;;;;17.37;69.38;100922.41;5043636;28;20455;-57
2022/09/20 12:01:31;;;;;;;0.60;0.50;;;;;;;17.07;70.99;100925.59;5045452;28;20464;-57
2022/09/20 12:04:11;;;;;;;2.60;0.97;;;;;;;16.90;71.71;100930.84;5043224;28;20450;-57
2022/09/20 12:07:02;;;;;;;1.17;1.07;;;;;;;16.78;72.50;100934.94;5029669;28;20457;-57
2022/09/20 12:09:37;;;;;;;2.40;0.80;;;;;;;15.99;75.92;100939.13;5038679;28;20452;-57
2022/09/20 12:12:42;;;;;;;1.03;0.70;;;;;;;15.45;82.72;100934.09;5041533;28;21190;-57
2022/09/20 12:15:38;;;;;;;1.33;0.80;;;;;;;15.60;84.29;100938.03;5009046;28;20507;-57
2022/09/20 12:18:07;;;;;;;1.77;1.67;;;;;;;15.31;84.71;100937.31;5028103;28;20512;-57
2022/09/20 12:20:34;;;;;;;0.77;0.77;;;;;;;14.98;88.37;100931.41;5038201;28;20476;-57
2022/09/20 12:26:06;;;;;;;5.20;0.90;;;;;;;15.17;86.51;100928.91;5025935;28;20437;-57
2022/09/20 12:28:38;;;;;;;2.67;0.80;;;;;;;15.61;83.71;100929.91;5038223;28;20456;-57
2022/09/20 12:31:28;;;;;;;0.77;0.70;;;;;;;15.72;86.09;100921.47;5043714;28;20553;-57